sensor_id;sensor_type;location;lat;lon;timestamp;P1;durP1;ratioP1;P2;durP2;ratioP2
10277;SDS011;5184;51.376;7.148;2022-12-07T00:01:44;41.30;;;31.87;;
10277;SDS011;5184;51.376;7.148;2022-12-07T00:04:11;39.33;;;29.50;;
10277;SDS011;5184;51.376;7.148;2022-12-07T00:06:38;38.13;;;30.10;;
10277;SDS011;5184;51.376;7.148;2022-12-07T00:09:05;39.13;;;30.67;;
10277;SDS011;5184;51.376;7.148;2022-12-07T00:11:32;44.13;;;31.17;;
10277;SDS011;5184;51.376;7.148;2022-12-07T00:14:01;39.20;;;30.80;;
10277;SDS011;5184;51.376;7.148;2022-12-07T00:16:27;41.53;;;31.00;;
10277;SDS011;5184;51.376;7.148;2022-12-07T00:18:52;44.00;;;31.73;;
10277;SDS011;5184;51.376;7.148;2022-12-07T00:21:21;43.20;;;31.00;;
10277;SDS011;5184;51.376;7.148;2022-12-07T00:23:49;41.07;;;31.00;;
10277;SDS011;5184;51.376;7.148;2022-12-07T00:26:15;42.00;;;31.20;;
10277;SDS011;5184;51.376;7.148;2022-12-07T00:28:40;41.17;;;31.10;;
10277;SDS011;5184;51.376;7.148;2022-12-07T00:31:08;42.20;;;29.53;;
10277;SDS011;5184;51.376;7.148;2022-12-07T00:33:34;41.10;;;30.77;;
10277;SDS011;5184;51.376;7.148;2022-12-07T00:36:00;42.27;;;31.40;;
10277;SDS011;5184;51.376;7.148;2022-12-07T00:38:28;38.90;;;30.13;;
10277;SDS011;5184;51.376;7.148;2022-12-07T00:40:54;44.07;;;32.47;;
10277;SDS011;5184;51.376;7.148;2022-12-07T00:43:20;39.33;;;30.80;;
10277;SDS011;5184;51.376;7.148;2022-12-07T00:45:47;46.40;;;33.23;;
10277;SDS011;5184;51.376;7.148;2022-12-07T00:48:15;42.30;;;31.43;;
10277;SDS011;5184;51.376;7.148;2022-12-07T00:50:41;44.07;;;32.77;;
10277;SDS011;5184;51.376;7.148;2022-12-07T00:53:08;43.20;;;32.13;;
10277;SDS011;5184;51.376;7.148;2022-12-07T00:55:35;44.57;;;32.50;;
10277;SDS011;5184;51.376;7.148;2022-12-07T00:58:02;44.93;;;33.30;;
10277;SDS011;5184;51.376;7.148;2022-12-07T01:00:28;46.00;;;34.27;;
10277;SDS011;5184;51.376;7.148;2022-12-07T01:02:55;46.33;;;33.80;;
10277;SDS011;5184;51.376;7.148;2022-12-07T01:05:22;45.07;;;34.03;;
10277;SDS011;5184;51.376;7.148;2022-12-07T01:07:48;42.00;;;31.33;;
10277;SDS011;5184;51.376;7.148;2022-12-07T01:10:15;40.80;;;31.10;;
10277;SDS011;5184;51.376;7.148;2022-12-07T01:12:41;46.37;;;32.47;;
10277;SDS011;5184;51.376;7.148;2022-12-07T01:15:08;42.93;;;31.47;;
10277;SDS011;5184;51.376;7.148;2022-12-07T01:17:35;39.17;;;30.43;;
10277;SDS011;5184;51.376;7.148;2022-12-07T01:20:02;40.43;;;31.80;;
10277;SDS011;5184;51.376;7.148;2022-12-07T01:22:29;37.53;;;28.83;;
10277;SDS011;5184;51.376;7.148;2022-12-07T01:24:56;40.13;;;30.87;;
10277;SDS011;5184;51.376;7.148;2022-12-07T01:27:22;39.70;;;30.40;;
10277;SDS011;5184;51.376;7.148;2022-12-07T01:29:49;38.30;;;30.20;;
10277;SDS011;5184;51.376;7.148;2022-12-07T01:32:16;37.87;;;29.37;;
10277;SDS011;5184;51.376;7.148;2022-12-07T01:34:44;39.40;;;29.93;;
10277;SDS011;5184;51.376;7.148;2022-12-07T01:37:10;40.07;;;30.63;;
10277;SDS011;5184;51.376;7.148;2022-12-07T01:39:37;42.93;;;32.03;;
10277;SDS011;5184;51.376;7.148;2022-12-07T01:42:04;45.87;;;30.57;;
10277;SDS011;5184;51.376;7.148;2022-12-07T01:44:32;45.87;;;30.97;;
10277;SDS011;5184;51.376;7.148;2022-12-07T01:47:00;43.37;;;31.67;;
10277;SDS011;5184;51.376;7.148;2022-12-07T01:49:29;46.47;;;32.97;;
10277;SDS011;5184;51.376;7.148;2022-12-07T01:52:01;43.03;;;30.80;;
10277;SDS011;5184;51.376;7.148;2022-12-07T01:54:24;49.13;;;34.67;;
10277;SDS011;5184;51.376;7.148;2022-12-07T01:56:51;46.07;;;33.03;;
10277;SDS011;5184;51.376;7.148;2022-12-07T01:59:18;50.50;;;34.43;;
10277;SDS011;5184;51.376;7.148;2022-12-07T02:01:44;49.00;;;32.73;;
10277;SDS011;5184;51.376;7.148;2022-12-07T02:04:11;49.30;;;34.03;;
10277;SDS011;5184;51.376;7.148;2022-12-07T02:06:39;50.70;;;33.77;;
10277;SDS011;5184;51.376;7.148;2022-12-07T02:09:05;48.10;;;33.10;;
10277;SDS011;5184;51.376;7.148;2022-12-07T02:11:32;50.57;;;33.77;;
10277;SDS011;5184;51.376;7.148;2022-12-07T02:13:59;46.53;;;32.37;;
10277;SDS011;5184;51.376;7.148;2022-12-07T02:16:32;51.57;;;34.30;;
10277;SDS011;5184;51.376;7.148;2022-12-07T02:19:03;53.50;;;33.87;;
10277;SDS011;5184;51.376;7.148;2022-12-07T02:21:37;45.43;;;31.70;;
10277;SDS011;5184;51.376;7.148;2022-12-07T02:25:08;50.90;;;33.90;;
10277;SDS011;5184;51.376;7.148;2022-12-07T02:27:26;49.73;;;33.10;;
10277;SDS011;5184;51.376;7.148;2022-12-07T02:29:55;49.53;;;33.03;;
10277;SDS011;5184;51.376;7.148;2022-12-07T02:32:32;50.13;;;34.13;;
10277;SDS011;5184;51.376;7.148;2022-12-07T02:35:02;50.03;;;34.57;;
10277;SDS011;5184;51.376;7.148;2022-12-07T02:37:27;50.67;;;33.63;;
10277;SDS011;5184;51.376;7.148;2022-12-07T02:39:59;49.00;;;34.27;;
10277;SDS011;5184;51.376;7.148;2022-12-07T02:42:28;51.37;;;34.73;;
10277;SDS011;5184;51.376;7.148;2022-12-07T02:44:53;49.23;;;34.10;;
10277;SDS011;5184;51.376;7.148;2022-12-07T02:47:19;51.17;;;33.97;;
10277;SDS011;5184;51.376;7.148;2022-12-07T02:49:46;50.43;;;32.80;;
10277;SDS011;5184;51.376;7.148;2022-12-07T02:52:13;49.27;;;32.53;;
10277;SDS011;5184;51.376;7.148;2022-12-07T02:54:41;49.87;;;32.50;;
10277;SDS011;5184;51.376;7.148;2022-12-07T02:57:20;52.50;;;33.70;;
10277;SDS011;5184;51.376;7.148;2022-12-07T02:59:49;47.63;;;31.60;;
10277;SDS011;5184;51.376;7.148;2022-12-07T03:05:11;45.83;;;31.13;;
10277;SDS011;5184;51.376;7.148;2022-12-07T03:14:12;47.47;;;30.53;;
10277;SDS011;5184;51.376;7.148;2022-12-07T03:16:03;44.63;;;31.10;;
10277;SDS011;5184;51.376;7.148;2022-12-07T03:18:33;45.63;;;30.80;;
10277;SDS011;5184;51.376;7.148;2022-12-07T03:20:58;46.37;;;30.53;;
10277;SDS011;5184;51.376;7.148;2022-12-07T03:23:24;47.43;;;31.33;;
10277;SDS011;5184;51.376;7.148;2022-12-07T03:25:52;48.83;;;31.30;;
10277;SDS011;5184;51.376;7.148;2022-12-07T03:28:18;49.73;;;30.80;;
10277;SDS011;5184;51.376;7.148;2022-12-07T03:30:45;49.37;;;33.13;;
10277;SDS011;5184;51.376;7.148;2022-12-07T03:33:25;50.07;;;32.53;;
10277;SDS011;5184;51.376;7.148;2022-12-07T03:35:52;47.70;;;32.67;;
10277;SDS011;5184;51.376;7.148;2022-12-07T03:38:29;49.10;;;31.87;;
10277;SDS011;5184;51.376;7.148;2022-12-07T03:41:00;50.57;;;33.47;;
10277;SDS011;5184;51.376;7.148;2022-12-07T03:43:28;48.70;;;31.77;;
10277;SDS011;5184;51.376;7.148;2022-12-07T03:46:01;47.17;;;32.47;;
10277;SDS011;5184;51.376;7.148;2022-12-07T03:48:32;49.17;;;33.10;;
10277;SDS011;5184;51.376;7.148;2022-12-07T03:51:05;51.90;;;33.43;;
10277;SDS011;5184;51.376;7.148;2022-12-07T03:53:34;49.73;;;31.37;;
10277;SDS011;5184;51.376;7.148;2022-12-07T03:55:59;48.30;;;31.70;;
10277;SDS011;5184;51.376;7.148;2022-12-07T03:58:27;48.00;;;31.93;;
10277;SDS011;5184;51.376;7.148;2022-12-07T04:00:54;47.27;;;32.40;;
10277;SDS011;5184;51.376;7.148;2022-12-07T04:03:21;48.00;;;30.93;;
10277;SDS011;5184;51.376;7.148;2022-12-07T04:05:49;54.23;;;31.60;;
10277;SDS011;5184;51.376;7.148;2022-12-07T04:08:15;51.57;;;31.70;;
10277;SDS011;5184;51.376;7.148;2022-12-07T04:10:42;49.10;;;30.73;;
10277;SDS011;5184;51.376;7.148;2022-12-07T04:13:09;49.20;;;31.73;;
10277;SDS011;5184;51.376;7.148;2022-12-07T04:15:36;46.40;;;30.63;;
10277;SDS011;5184;51.376;7.148;2022-12-07T04:18:03;48.17;;;32.00;;
10277;SDS011;5184;51.376;7.148;2022-12-07T04:20:31;50.73;;;30.50;;
10277;SDS011;5184;51.376;7.148;2022-12-07T04:22:57;52.33;;;32.40;;
10277;SDS011;5184;51.376;7.148;2022-12-07T04:25:24;47.80;;;30.30;;
10277;SDS011;5184;51.376;7.148;2022-12-07T04:27:50;48.13;;;29.90;;
10277;SDS011;5184;51.376;7.148;2022-12-07T04:30:17;46.80;;;30.67;;
10277;SDS011;5184;51.376;7.148;2022-12-07T04:32:44;44.00;;;29.13;;
10277;SDS011;5184;51.376;7.148;2022-12-07T04:35:10;47.50;;;29.23;;
10277;SDS011;5184;51.376;7.148;2022-12-07T04:37:38;43.27;;;29.03;;
10277;SDS011;5184;51.376;7.148;2022-12-07T04:40:06;46.03;;;29.57;;
10277;SDS011;5184;51.376;7.148;2022-12-07T04:42:32;42.40;;;27.67;;
10277;SDS011;5184;51.376;7.148;2022-12-07T04:44:59;43.50;;;27.43;;
10277;SDS011;5184;51.376;7.148;2022-12-07T04:47:26;41.57;;;26.20;;
10277;SDS011;5184;51.376;7.148;2022-12-07T04:49:53;40.70;;;27.40;;
10277;SDS011;5184;51.376;7.148;2022-12-07T04:52:19;47.50;;;28.50;;
10277;SDS011;5184;51.376;7.148;2022-12-07T04:54:46;40.43;;;26.50;;
10277;SDS011;5184;51.376;7.148;2022-12-07T04:57:12;41.57;;;26.63;;
10277;SDS011;5184;51.376;7.148;2022-12-07T04:59:40;43.90;;;27.63;;
10277;SDS011;5184;51.376;7.148;2022-12-07T05:02:06;41.57;;;29.03;;
10277;SDS011;5184;51.376;7.148;2022-12-07T05:04:33;43.03;;;27.57;;
10277;SDS011;5184;51.376;7.148;2022-12-07T05:07:00;42.67;;;28.50;;
10277;SDS011;5184;51.376;7.148;2022-12-07T05:09:26;38.27;;;27.37;;
10277;SDS011;5184;51.376;7.148;2022-12-07T05:11:53;39.73;;;26.83;;
10277;SDS011;5184;51.376;7.148;2022-12-07T05:14:20;39.60;;;25.80;;
10277;SDS011;5184;51.376;7.148;2022-12-07T05:16:48;40.30;;;26.97;;
10277;SDS011;5184;51.376;7.148;2022-12-07T05:19:14;40.27;;;26.87;;
10277;SDS011;5184;51.376;7.148;2022-12-07T05:21:42;38.67;;;27.67;;
10277;SDS011;5184;51.376;7.148;2022-12-07T05:24:10;38.20;;;27.53;;
10277;SDS011;5184;51.376;7.148;2022-12-07T05:26:35;45.87;;;28.67;;
10277;SDS011;5184;51.376;7.148;2022-12-07T05:29:02;44.63;;;29.10;;
10277;SDS011;5184;51.376;7.148;2022-12-07T05:31:29;40.40;;;26.57;;
10277;SDS011;5184;51.376;7.148;2022-12-07T05:33:55;48.40;;;29.20;;
10277;SDS011;5184;51.376;7.148;2022-12-07T05:36:22;41.70;;;28.60;;
10277;SDS011;5184;51.376;7.148;2022-12-07T05:38:49;43.57;;;29.83;;
10277;SDS011;5184;51.376;7.148;2022-12-07T05:41:17;43.20;;;27.70;;
10277;SDS011;5184;51.376;7.148;2022-12-07T05:43:48;41.57;;;28.93;;
10277;SDS011;5184;51.376;7.148;2022-12-07T05:46:15;47.37;;;30.33;;
10277;SDS011;5184;51.376;7.148;2022-12-07T05:48:41;42.80;;;28.33;;
10277;SDS011;5184;51.376;7.148;2022-12-07T05:51:09;45.03;;;29.07;;
10277;SDS011;5184;51.376;7.148;2022-12-07T05:53:36;45.63;;;29.20;;
10277;SDS011;5184;51.376;7.148;2022-12-07T05:56:04;44.83;;;29.97;;
10277;SDS011;5184;51.376;7.148;2022-12-07T05:58:31;46.43;;;28.60;;
10277;SDS011;5184;51.376;7.148;2022-12-07T06:01:03;46.03;;;29.67;;
10277;SDS011;5184;51.376;7.148;2022-12-07T06:03:30;44.20;;;27.30;;
10277;SDS011;5184;51.376;7.148;2022-12-07T06:05:56;44.10;;;28.33;;
10277;SDS011;5184;51.376;7.148;2022-12-07T06:08:24;44.57;;;28.60;;
10277;SDS011;5184;51.376;7.148;2022-12-07T06:10:51;39.97;;;26.83;;
10277;SDS011;5184;51.376;7.148;2022-12-07T06:13:18;45.53;;;26.17;;
10277;SDS011;5184;51.376;7.148;2022-12-07T06:15:45;44.00;;;27.77;;
10277;SDS011;5184;51.376;7.148;2022-12-07T06:18:12;37.23;;;25.20;;
10277;SDS011;5184;51.376;7.148;2022-12-07T06:20:38;39.77;;;24.83;;
10277;SDS011;5184;51.376;7.148;2022-12-07T06:23:05;37.13;;;23.67;;
10277;SDS011;5184;51.376;7.148;2022-12-07T06:25:31;36.90;;;23.53;;
10277;SDS011;5184;51.376;7.148;2022-12-07T06:27:59;28.80;;;21.73;;
10277;SDS011;5184;51.376;7.148;2022-12-07T06:30:25;33.20;;;22.07;;
10277;SDS011;5184;51.376;7.148;2022-12-07T06:32:52;33.27;;;22.77;;
10277;SDS011;5184;51.376;7.148;2022-12-07T06:35:19;30.67;;;21.73;;
10277;SDS011;5184;51.376;7.148;2022-12-07T06:37:45;33.93;;;22.33;;
10277;SDS011;5184;51.376;7.148;2022-12-07T06:40:12;32.83;;;20.83;;
10277;SDS011;5184;51.376;7.148;2022-12-07T06:42:39;31.40;;;21.17;;
10277;SDS011;5184;51.376;7.148;2022-12-07T06:45:05;28.23;;;20.13;;
10277;SDS011;5184;51.376;7.148;2022-12-07T06:47:32;28.20;;;19.70;;
10277;SDS011;5184;51.376;7.148;2022-12-07T06:49:59;34.40;;;19.60;;
10277;SDS011;5184;51.376;7.148;2022-12-07T06:52:25;30.60;;;20.93;;
10277;SDS011;5184;51.376;7.148;2022-12-07T06:54:53;30.90;;;18.87;;
10277;SDS011;5184;51.376;7.148;2022-12-07T06:57:20;27.70;;;19.10;;
10277;SDS011;5184;51.376;7.148;2022-12-07T06:59:47;33.40;;;21.00;;
10277;SDS011;5184;51.376;7.148;2022-12-07T07:02:14;29.93;;;20.73;;
10277;SDS011;5184;51.376;7.148;2022-12-07T07:04:41;30.87;;;21.10;;
10277;SDS011;5184;51.376;7.148;2022-12-07T07:07:07;31.63;;;20.03;;
10277;SDS011;5184;51.376;7.148;2022-12-07T07:09:35;30.00;;;21.60;;
10277;SDS011;5184;51.376;7.148;2022-12-07T07:12:02;29.67;;;20.37;;
10277;SDS011;5184;51.376;7.148;2022-12-07T07:14:29;26.37;;;18.87;;
10277;SDS011;5184;51.376;7.148;2022-12-07T07:16:55;28.87;;;20.00;;
10277;SDS011;5184;51.376;7.148;2022-12-07T07:19:22;26.37;;;18.57;;
10277;SDS011;5184;51.376;7.148;2022-12-07T07:21:48;24.83;;;19.03;;
10277;SDS011;5184;51.376;7.148;2022-12-07T07:24:15;25.50;;;18.27;;
10277;SDS011;5184;51.376;7.148;2022-12-07T07:26:42;24.10;;;17.33;;
10277;SDS011;5184;51.376;7.148;2022-12-07T07:29:08;23.20;;;17.33;;
10277;SDS011;5184;51.376;7.148;2022-12-07T07:31:36;22.73;;;16.10;;
10277;SDS011;5184;51.376;7.148;2022-12-07T07:34:03;24.00;;;16.27;;
10277;SDS011;5184;51.376;7.148;2022-12-07T07:36:30;21.63;;;15.73;;
10277;SDS011;5184;51.376;7.148;2022-12-07T07:38:57;21.00;;;15.27;;
10277;SDS011;5184;51.376;7.148;2022-12-07T07:41:24;22.33;;;16.00;;
10277;SDS011;5184;51.376;7.148;2022-12-07T07:43:51;24.03;;;16.23;;
10277;SDS011;5184;51.376;7.148;2022-12-07T07:46:18;23.70;;;16.67;;
10277;SDS011;5184;51.376;7.148;2022-12-07T07:48:44;20.03;;;15.90;;
10277;SDS011;5184;51.376;7.148;2022-12-07T07:51:11;20.37;;;14.80;;
10277;SDS011;5184;51.376;7.148;2022-12-07T07:53:37;23.00;;;14.80;;
10277;SDS011;5184;51.376;7.148;2022-12-07T07:56:04;25.30;;;15.83;;
10277;SDS011;5184;51.376;7.148;2022-12-07T07:58:31;21.40;;;14.67;;
10277;SDS011;5184;51.376;7.148;2022-12-07T08:01:02;21.73;;;15.10;;
10277;SDS011;5184;51.376;7.148;2022-12-07T08:03:24;24.53;;;15.60;;
10277;SDS011;5184;51.376;7.148;2022-12-07T08:05:51;24.13;;;15.40;;
10277;SDS011;5184;51.376;7.148;2022-12-07T08:08:18;21.77;;;15.07;;
10277;SDS011;5184;51.376;7.148;2022-12-07T08:10:44;21.17;;;15.40;;
10277;SDS011;5184;51.376;7.148;2022-12-07T08:13:11;20.20;;;15.50;;
10277;SDS011;5184;51.376;7.148;2022-12-07T08:15:38;23.50;;;14.93;;
10277;SDS011;5184;51.376;7.148;2022-12-07T08:18:05;23.13;;;14.67;;
10277;SDS011;5184;51.376;7.148;2022-12-07T08:20:33;22.23;;;15.03;;
10277;SDS011;5184;51.376;7.148;2022-12-07T08:22:59;21.17;;;14.83;;
10277;SDS011;5184;51.376;7.148;2022-12-07T08:25:27;20.47;;;14.47;;
10277;SDS011;5184;51.376;7.148;2022-12-07T08:27:54;20.13;;;14.23;;
10277;SDS011;5184;51.376;7.148;2022-12-07T08:30:21;19.67;;;12.80;;
10277;SDS011;5184;51.376;7.148;2022-12-07T08:32:48;16.80;;;11.53;;
10277;SDS011;5184;51.376;7.148;2022-12-07T08:35:14;16.37;;;11.77;;
10277;SDS011;5184;51.376;7.148;2022-12-07T08:37:41;17.93;;;12.10;;
10277;SDS011;5184;51.376;7.148;2022-12-07T08:40:09;14.87;;;11.77;;
10277;SDS011;5184;51.376;7.148;2022-12-07T08:42:36;13.13;;;10.23;;
10277;SDS011;5184;51.376;7.148;2022-12-07T08:45:06;14.93;;;11.07;;
10277;SDS011;5184;51.376;7.148;2022-12-07T08:47:34;14.83;;;10.17;;
10277;SDS011;5184;51.376;7.148;2022-12-07T08:50:00;15.40;;;10.70;;
10277;SDS011;5184;51.376;7.148;2022-12-07T08:52:27;15.20;;;10.97;;
10277;SDS011;5184;51.376;7.148;2022-12-07T08:54:54;17.60;;;11.90;;
10277;SDS011;5184;51.376;7.148;2022-12-07T08:57:22;14.13;;;10.37;;
10277;SDS011;5184;51.376;7.148;2022-12-07T08:59:49;16.77;;;11.10;;
10277;SDS011;5184;51.376;7.148;2022-12-07T09:02:16;16.73;;;13.07;;
10277;SDS011;5184;51.376;7.148;2022-12-07T09:04:44;16.07;;;13.03;;
10277;SDS011;5184;51.376;7.148;2022-12-07T09:07:11;23.97;;;16.77;;
10277;SDS011;5184;51.376;7.148;2022-12-07T09:09:38;19.27;;;12.37;;
10277;SDS011;5184;51.376;7.148;2022-12-07T09:12:04;11.93;;;10.23;;
10277;SDS011;5184;51.376;7.148;2022-12-07T09:14:31;28.60;;;17.93;;
10277;SDS011;5184;51.376;7.148;2022-12-07T09:19:32;29.30;;;19.37;;
10277;SDS011;5184;51.376;7.148;2022-12-07T09:21:59;25.27;;;16.50;;
10277;SDS011;5184;51.376;7.148;2022-12-07T09:24:26;16.00;;;11.47;;
10277;SDS011;5184;51.376;7.148;2022-12-07T09:26:54;15.80;;;12.00;;
10277;SDS011;5184;51.376;7.148;2022-12-07T09:29:21;18.77;;;12.73;;
10277;SDS011;5184;51.376;7.148;2022-12-07T09:31:48;17.27;;;12.17;;
10277;SDS011;5184;51.376;7.148;2022-12-07T09:34:15;18.17;;;12.90;;
10277;SDS011;5184;51.376;7.148;2022-12-07T09:36:42;17.80;;;12.70;;
10277;SDS011;5184;51.376;7.148;2022-12-07T09:39:08;16.00;;;13.37;;
10277;SDS011;5184;51.376;7.148;2022-12-07T09:41:37;16.47;;;12.67;;
10277;SDS011;5184;51.376;7.148;2022-12-07T09:44:05;15.97;;;12.93;;
10277;SDS011;5184;51.376;7.148;2022-12-07T09:46:32;20.67;;;13.70;;
10277;SDS011;5184;51.376;7.148;2022-12-07T09:48:58;19.03;;;13.90;;
10277;SDS011;5184;51.376;7.148;2022-12-07T09:51:25;19.80;;;13.87;;
10277;SDS011;5184;51.376;7.148;2022-12-07T09:53:53;21.70;;;14.00;;
10277;SDS011;5184;51.376;7.148;2022-12-07T09:56:19;20.73;;;14.33;;
10277;SDS011;5184;51.376;7.148;2022-12-07T09:58:46;21.33;;;14.00;;
10277;SDS011;5184;51.376;7.148;2022-12-07T10:01:13;19.33;;;13.10;;
10277;SDS011;5184;51.376;7.148;2022-12-07T10:03:40;18.10;;;12.77;;
10277;SDS011;5184;51.376;7.148;2022-12-07T10:06:05;18.30;;;13.67;;
10277;SDS011;5184;51.376;7.148;2022-12-07T10:08:32;18.23;;;12.40;;
10277;SDS011;5184;51.376;7.148;2022-12-07T10:11:02;13.90;;;10.27;;
10277;SDS011;5184;51.376;7.148;2022-12-07T10:16:00;15.60;;;10.73;;
10277;SDS011;5184;51.376;7.148;2022-12-07T10:18:32;15.37;;;10.80;;
10277;SDS011;5184;51.376;7.148;2022-12-07T10:23:58;16.90;;;11.20;;
10277;SDS011;5184;51.376;7.148;2022-12-07T10:26:19;15.67;;;9.63;;
10277;SDS011;5184;51.376;7.148;2022-12-07T10:28:47;16.07;;;11.00;;
10277;SDS011;5184;51.376;7.148;2022-12-07T10:31:16;14.43;;;8.97;;
10277;SDS011;5184;51.376;7.148;2022-12-07T10:33:49;13.83;;;10.33;;
10277;SDS011;5184;51.376;7.148;2022-12-07T10:36:18;13.57;;;9.07;;
10277;SDS011;5184;51.376;7.148;2022-12-07T10:38:48;14.57;;;9.30;;
10277;SDS011;5184;51.376;7.148;2022-12-07T10:41:14;14.10;;;8.80;;
10277;SDS011;5184;51.376;7.148;2022-12-07T10:43:48;16.77;;;9.00;;
10277;SDS011;5184;51.376;7.148;2022-12-07T10:49:25;10.30;;;7.80;;
10277;SDS011;5184;51.376;7.148;2022-12-07T10:51:34;12.43;;;7.10;;
10277;SDS011;5184;51.376;7.148;2022-12-07T10:54:37;10.77;;;6.93;;
10277;SDS011;5184;51.376;7.148;2022-12-07T10:56:45;9.40;;;6.10;;
10277;SDS011;5184;51.376;7.148;2022-12-07T10:59:28;7.83;;;6.80;;
10277;SDS011;5184;51.376;7.148;2022-12-07T11:02:09;8.20;;;6.00;;
10277;SDS011;5184;51.376;7.148;2022-12-07T11:04:35;11.90;;;6.00;;
10277;SDS011;5184;51.376;7.148;2022-12-07T11:07:06;10.37;;;5.57;;
10277;SDS011;5184;51.376;7.148;2022-12-07T11:12:26;12.07;;;6.00;;
10277;SDS011;5184;51.376;7.148;2022-12-07T11:14:54;10.57;;;6.73;;
10277;SDS011;5184;51.376;7.148;2022-12-07T11:17:20;9.73;;;6.00;;
10277;SDS011;5184;51.376;7.148;2022-12-07T11:20:00;8.37;;;6.40;;
10277;SDS011;5184;51.376;7.148;2022-12-07T11:25:14;10.07;;;7.30;;
10277;SDS011;5184;51.376;7.148;2022-12-07T11:30:42;11.20;;;8.47;;
10277;SDS011;5184;51.376;7.148;2022-12-07T11:33:09;15.03;;;11.40;;
10277;SDS011;5184;51.376;7.148;2022-12-07T11:38:18;15.93;;;10.03;;
10277;SDS011;5184;51.376;7.148;2022-12-07T11:40:45;15.37;;;10.23;;
10277;SDS011;5184;51.376;7.148;2022-12-07T11:43:17;14.13;;;10.57;;
10277;SDS011;5184;51.376;7.148;2022-12-07T11:45:52;17.60;;;10.93;;
10277;SDS011;5184;51.376;7.148;2022-12-07T11:48:19;14.43;;;11.37;;
10277;SDS011;5184;51.376;7.148;2022-12-07T11:50:48;16.30;;;12.47;;
10277;SDS011;5184;51.376;7.148;2022-12-07T11:53:18;21.50;;;15.20;;
10277;SDS011;5184;51.376;7.148;2022-12-07T11:55:48;26.63;;;11.77;;
10277;SDS011;5184;51.376;7.148;2022-12-07T11:58:20;13.97;;;9.63;;
10277;SDS011;5184;51.376;7.148;2022-12-07T12:01:06;16.77;;;10.53;;
10277;SDS011;5184;51.376;7.148;2022-12-07T12:03:33;12.83;;;8.83;;
10277;SDS011;5184;51.376;7.148;2022-12-07T12:05:58;11.47;;;8.90;;
10277;SDS011;5184;51.376;7.148;2022-12-07T12:08:27;12.30;;;8.53;;
10277;SDS011;5184;51.376;7.148;2022-12-07T12:14:02;11.13;;;7.80;;
10277;SDS011;5184;51.376;7.148;2022-12-07T12:16:35;11.20;;;7.17;;
10277;SDS011;5184;51.376;7.148;2022-12-07T12:19:04;10.10;;;7.73;;
10277;SDS011;5184;51.376;7.148;2022-12-07T12:21:30;11.13;;;7.57;;
10277;SDS011;5184;51.376;7.148;2022-12-07T12:23:59;10.17;;;7.17;;
10277;SDS011;5184;51.376;7.148;2022-12-07T12:26:25;11.30;;;6.70;;
10277;SDS011;5184;51.376;7.148;2022-12-07T12:28:54;11.80;;;7.30;;
10277;SDS011;5184;51.376;7.148;2022-12-07T12:31:31;8.80;;;5.73;;
10277;SDS011;5184;51.376;7.148;2022-12-07T12:34:04;10.43;;;5.60;;
10277;SDS011;5184;51.376;7.148;2022-12-07T12:36:45;10.30;;;6.27;;
10277;SDS011;5184;51.376;7.148;2022-12-07T12:39:14;10.30;;;5.77;;
10277;SDS011;5184;51.376;7.148;2022-12-07T12:41:55;10.10;;;4.87;;
10277;SDS011;5184;51.376;7.148;2022-12-07T12:44:38;7.43;;;4.23;;
10277;SDS011;5184;51.376;7.148;2022-12-07T12:47:42;8.70;;;5.30;;
10277;SDS011;5184;51.376;7.148;2022-12-07T12:50:11;8.53;;;4.67;;
10277;SDS011;5184;51.376;7.148;2022-12-07T12:52:48;8.23;;;4.63;;
10277;SDS011;5184;51.376;7.148;2022-12-07T12:55:15;10.43;;;4.50;;
10277;SDS011;5184;51.376;7.148;2022-12-07T12:57:42;8.07;;;5.73;;
10277;SDS011;5184;51.376;7.148;2022-12-07T13:00:16;10.50;;;6.03;;
10277;SDS011;5184;51.376;7.148;2022-12-07T13:02:53;8.03;;;5.07;;
10277;SDS011;5184;51.376;7.148;2022-12-07T13:05:21;8.53;;;4.93;;
10277;SDS011;5184;51.376;7.148;2022-12-07T13:07:51;9.40;;;4.10;;
10277;SDS011;5184;51.376;7.148;2022-12-07T13:10:21;8.80;;;4.40;;
10277;SDS011;5184;51.376;7.148;2022-12-07T13:15:53;11.57;;;4.57;;
10277;SDS011;5184;51.376;7.148;2022-12-07T13:18:23;6.03;;;3.90;;
10277;SDS011;5184;51.376;7.148;2022-12-07T13:21:40;7.40;;;4.20;;
10277;SDS011;5184;51.376;7.148;2022-12-07T13:24:07;8.53;;;4.50;;
10277;SDS011;5184;51.376;7.148;2022-12-07T13:26:35;8.90;;;4.70;;
10277;SDS011;5184;51.376;7.148;2022-12-07T13:29:10;11.20;;;3.97;;
10277;SDS011;5184;51.376;7.148;2022-12-07T13:31:41;8.30;;;3.70;;
10277;SDS011;5184;51.376;7.148;2022-12-07T13:34:43;7.00;;;4.13;;
10277;SDS011;5184;51.376;7.148;2022-12-07T13:36:56;8.70;;;3.77;;
10277;SDS011;5184;51.376;7.148;2022-12-07T13:39:23;8.40;;;3.73;;
10277;SDS011;5184;51.376;7.148;2022-12-07T13:41:50;8.33;;;4.50;;
10277;SDS011;5184;51.376;7.148;2022-12-07T13:44:16;10.47;;;4.83;;
10277;SDS011;5184;51.376;7.148;2022-12-07T13:46:44;6.97;;;4.47;;
10277;SDS011;5184;51.376;7.148;2022-12-07T13:49:20;6.87;;;4.60;;
10277;SDS011;5184;51.376;7.148;2022-12-07T13:51:46;8.30;;;5.70;;
10277;SDS011;5184;51.376;7.148;2022-12-07T13:54:13;9.50;;;5.00;;
10277;SDS011;5184;51.376;7.148;2022-12-07T13:56:41;7.13;;;4.30;;
10277;SDS011;5184;51.376;7.148;2022-12-07T14:01:40;6.17;;;3.37;;
10277;SDS011;5184;51.376;7.148;2022-12-07T14:09:17;7.17;;;3.40;;
10277;SDS011;5184;51.376;7.148;2022-12-07T14:11:41;11.10;;;6.10;;
10277;SDS011;5184;51.376;7.148;2022-12-07T14:14:10;10.80;;;5.33;;
10277;SDS011;5184;51.376;7.148;2022-12-07T14:16:36;8.03;;;4.63;;
10277;SDS011;5184;51.376;7.148;2022-12-07T14:19:05;7.17;;;3.20;;
10277;SDS011;5184;51.376;7.148;2022-12-07T14:21:32;11.50;;;4.37;;
10277;SDS011;5184;51.376;7.148;2022-12-07T14:24:04;8.37;;;4.10;;
10277;SDS011;5184;51.376;7.148;2022-12-07T14:26:28;10.23;;;3.90;;
10277;SDS011;5184;51.376;7.148;2022-12-07T14:29:18;6.97;;;3.13;;
10277;SDS011;5184;51.376;7.148;2022-12-07T14:31:23;4.63;;;2.80;;
10277;SDS011;5184;51.376;7.148;2022-12-07T14:33:50;6.20;;;3.40;;
10277;SDS011;5184;51.376;7.148;2022-12-07T14:36:18;7.53;;;3.23;;
10277;SDS011;5184;51.376;7.148;2022-12-07T14:38:45;7.80;;;3.93;;
10277;SDS011;5184;51.376;7.148;2022-12-07T14:41:14;3.90;;;2.73;;
10277;SDS011;5184;51.376;7.148;2022-12-07T14:43:45;7.80;;;3.90;;
10277;SDS011;5184;51.376;7.148;2022-12-07T14:46:11;6.43;;;3.60;;
10277;SDS011;5184;51.376;7.148;2022-12-07T14:48:38;7.87;;;3.83;;
10277;SDS011;5184;51.376;7.148;2022-12-07T14:51:07;6.37;;;3.60;;
10277;SDS011;5184;51.376;7.148;2022-12-07T14:53:35;7.00;;;4.00;;
10277;SDS011;5184;51.376;7.148;2022-12-07T14:56:00;9.20;;;4.20;;
10277;SDS011;5184;51.376;7.148;2022-12-07T14:58:26;6.10;;;3.97;;
10277;SDS011;5184;51.376;7.148;2022-12-07T15:00:53;8.33;;;4.17;;
10277;SDS011;5184;51.376;7.148;2022-12-07T15:03:20;7.07;;;4.30;;
10277;SDS011;5184;51.376;7.148;2022-12-07T15:05:46;7.33;;;4.83;;
10277;SDS011;5184;51.376;7.148;2022-12-07T15:08:13;11.20;;;5.13;;
10277;SDS011;5184;51.376;7.148;2022-12-07T15:10:39;5.80;;;3.97;;
10277;SDS011;5184;51.376;7.148;2022-12-07T15:13:07;11.23;;;4.37;;
10277;SDS011;5184;51.376;7.148;2022-12-07T15:15:39;8.00;;;4.60;;
10277;SDS011;5184;51.376;7.148;2022-12-07T15:18:06;7.47;;;4.70;;
10277;SDS011;5184;51.376;7.148;2022-12-07T15:20:32;6.87;;;5.00;;
10277;SDS011;5184;51.376;7.148;2022-12-07T15:22:59;10.33;;;4.97;;
10277;SDS011;5184;51.376;7.148;2022-12-07T15:25:25;7.77;;;5.33;;
10277;SDS011;5184;51.376;7.148;2022-12-07T15:27:52;7.10;;;4.87;;
10277;SDS011;5184;51.376;7.148;2022-12-07T15:30:19;7.80;;;4.87;;
10277;SDS011;5184;51.376;7.148;2022-12-07T15:32:48;9.67;;;5.30;;